Time;durP1;ratioP1;P1;durP2;ratioP2;P2;SDS_P1;SDS_P2;PMS_P1;PMS_P2;Temp;Humidity;BMP_temperature;BMP_pressure;BME280_temperature;BME280_humidity;BME280_pressure;Samples;Min_cycle;Max_cycle;Signal;HPM_P1;HPM_P2
2022/05/03 00:00:09;;;;;;;1.52;1.30;;;10.30;87.30;;;;;;5106449;28;20044;-42
2022/05/03 00:02:44;;;;;;;1.55;1.38;;;10.20;87.40;;;;;;5094934;28;20027;-43
2022/05/03 00:05:16;;;;;;;2.42;1.50;;;10.20;87.40;;;;;;5106686;28;20043;-38
2022/05/03 00:07:41;;;;;;;2.42;1.60;;;10.20;87.60;;;;;;5096352;28;20111;-40
2022/05/03 00:10:11;;;;;;;2.03;1.50;;;10.10;87.80;;;;;;5105288;28;20158;-42
2022/05/03 00:12:57;;;;;;;2.10;1.70;;;10.10;88.10;;;;;;5095626;28;20047;-38
2022/05/03 00:15:24;;;;;;;1.83;1.60;;;10.10;88.40;;;;;;5105931;28;20571;-43
2022/05/03 00:17:52;;;;;;;2.15;1.65;;;10.00;88.50;;;;;;5095476;28;20031;-43
2022/05/03 00:20:18;;;;;;;1.50;1.40;;;10.00;88.80;;;;;;5107213;28;20033;-42
2022/05/03 00:22:44;;;;;;;2.15;1.80;;;9.90;88.80;;;;;;5094339;28;20856;-41
2022/05/03 00:25:10;;;;;;;2.65;1.67;;;9.90;88.90;;;;;;5106897;28;20028;-42
2022/05/03 00:27:35;;;;;;;2.45;2.00;;;9.80;89.10;;;;;;5093691;28;20022;-41
2022/05/03 00:30:03;;;;;;;2.92;2.10;;;9.80;89.50;;;;;;5107326;28;20074;-43
2022/05/03 00:32:29;;;;;;;3.15;1.88;;;9.70;89.90;;;;;;5094399;28;20918;-43
2022/05/03 00:34:58;;;;;;;2.78;1.92;;;9.70;90.20;;;;;;5106270;28;20110;-42
2022/05/03 00:37:23;;;;;;;2.40;2.20;;;9.60;90.30;;;;;;5096111;28;20081;-42
2022/05/03 00:39:49;;;;;;;2.03;1.65;;;9.60;90.40;;;;;;5103546;28;20035;-43
2022/05/03 00:42:19;;;;;;;2.05;1.85;;;9.50;90.50;;;;;;5099353;28;20071;-42
2022/05/03 00:44:58;;;;;;;2.28;1.88;;;9.40;90.60;;;;;;5099349;28;20034;-41
2022/05/03 00:47:35;;;;;;;2.30;1.90;;;9.40;90.70;;;;;;5093281;28;20149;-41
2022/05/03 00:50:08;;;;;;;3.30;1.80;;;9.20;90.80;;;;;;5090751;28;20032;-43
2022/05/03 00:52:47;;;;;;;2.20;1.80;;;9.20;90.90;;;;;;5091961;28;20036;-43
2022/05/03 00:55:38;;;;;;;3.40;2.10;;;9.10;91.00;;;;;;5090416;28;20024;-42
2022/05/03 00:58:16;;;;;;;2.28;2.05;;;9.00;91.10;;;;;;5096410;28;20042;-41
2022/05/03 01:00:55;;;;;;;3.38;2.60;;;9.00;91.30;;;;;;5087971;28;20046;-41
2022/05/03 01:03:31;;;;;;;2.47;1.98;;;8.90;91.50;;;;;;5096293;28;20019;-42
2022/05/03 01:06:12;;;;;;;2.35;2.15;;;8.80;91.50;;;;;;5086592;28;20030;-42
2022/05/03 01:08:41;;;;;;;3.28;2.08;;;8.80;91.70;;;;;;5097418;28;20092;-42
2022/05/03 01:11:14;;;;;;;3.00;2.17;;;8.80;91.90;;;;;;5087127;28;20491;-41
2022/05/03 01:13:51;;;;;;;;;;;8.70;91.90;;;;;;5095916;28;20051;-42
2022/05/03 01:16:28;;;;;;;2.83;2.10;;;8.70;92.10;;;;;;5087344;28;19904;-43
2022/05/03 01:19:01;;;;;;;2.90;2.58;;;8.70;92.20;;;;;;5096745;28;20035;-43
2022/05/03 01:21:48;;;;;;;4.03;2.78;;;8.60;92.20;;;;;;5085656;28;20035;-43
2022/05/03 01:25:05;;;;;;;2.70;2.50;;;8.60;92.50;;;;;;5097546;28;20038;-44
2022/05/03 01:27:59;;;;;;;2.33;2.13;;;8.60;92.60;;;;;;5030457;28;20029;-43
2022/05/03 01:30:28;;;;;;;3.25;2.40;;;8.50;92.60;;;;;;5097111;28;20119;-40
2022/05/03 01:33:05;;;;;;;3.63;2.35;;;8.50;92.80;;;;;;5086886;28;20039;-42
2022/05/03 01:35:37;;;;;;;4.60;2.72;;;8.40;92.80;;;;;;5096296;28;20030;-42
2022/05/03 01:38:30;;;;;;;3.67;2.70;;;8.50;93.00;;;;;;5087453;28;20850;-43
2022/05/03 01:41:13;;;;;;;3.20;2.90;;;8.40;93.10;;;;;;5083854;28;20055;-43
2022/05/03 01:44:09;;;;;;;3.42;2.70;;;8.40;93.30;;;;;;5104081;28;20387;-42
2022/05/03 01:46:36;;;;;;;3.65;2.60;;;8.30;93.20;;;;;;5082244;28;20051;-44
2022/05/03 01:52:38;;;;;;;5.40;3.47;;;8.30;93.40;;;;;;5088460;28;20069;-43
2022/05/03 01:55:31;;;;;;;3.90;2.65;;;8.30;93.70;;;;;;5095186;28;20404;-42
2022/05/03 01:58:31;;;;;;;3.45;2.75;;;8.30;93.90;;;;;;5013733;28;20079;-42
2022/05/03 02:01:25;;;;;;;3.10;2.80;;;8.20;93.90;;;;;;5023794;28;20038;-43
2022/05/03 02:03:57;;;;;;;4.15;3.75;;;8.20;93.90;;;;;;5085769;28;20046;-41
2022/05/03 02:06:41;;;;;;;3.10;2.80;;;8.20;93.90;;;;;;5093616;28;20413;-43
2022/05/03 02:09:07;;;;;;;3.80;2.88;;;8.20;94.00;;;;;;5086462;28;20020;-42
2022/05/03 02:11:54;;;;;;;3.63;3.10;;;8.20;94.10;;;;;;5096289;28;20043;-42
2022/05/03 02:14:45;;;;;;;3.47;3.08;;;8.20;94.20;;;;;;5086681;28;20418;-43
2022/05/03 02:17:37;;;;;;;7.53;3.50;;;8.20;94.50;;;;;;5083973;28;20023;-42
2022/05/03 02:20:36;;;;;;;3.35;3.05;;;8.20;94.40;;;;;;5102506;28;20027;-42
2022/05/03 02:23:15;;;;;;;4.30;3.58;;;8.20;94.50;;;;;;5100234;28;20031;-43
2022/05/03 02:25:58;;;;;;;4.10;3.17;;;8.10;94.60;;;;;;5098270;28;20635;-43
2022/05/03 02:28:45;;;;;;;4.68;3.05;;;8.10;94.70;;;;;;5101672;28;20035;-41
2022/05/03 02:31:18;;;;;;;4.00;3.00;;;8.10;94.70;;;;;;5094827;28;20028;-42
2022/05/03 02:33:54;;;;;;;3.63;3.00;;;8.00;94.70;;;;;;5103184;28;20082;-41
2022/05/03 02:36:23;;;;;;;3.47;2.90;;;8.00;94.80;;;;;;5095487;28;20024;-46
2022/05/03 02:38:53;;;;;;;3.13;2.83;;;8.00;94.80;;;;;;5102272;28;20038;-42
2022/05/03 02:41:21;;;;;;;3.63;3.20;;;7.90;94.90;;;;;;5096782;28;20559;-41
2022/05/03 02:43:48;;;;;;;3.83;2.70;;;7.90;94.90;;;;;;5100228;28;20042;-42
2022/05/03 02:46:49;;;;;;;3.20;2.90;;;7.90;95.10;;;;;;5098099;28;20463;-46
2022/05/03 02:49:25;;;;;;;3.08;2.70;;;7.90;95.00;;;;;;5103157;28;20118;-42
2022/05/03 02:52:05;;;;;;;3.83;2.95;;;7.90;94.90;;;;;;5094958;28;20031;-41
2022/05/03 02:54:48;;;;;;;3.17;2.88;;;7.90;95.00;;;;;;5103224;28;20501;-39
2022/05/03 02:57:26;;;;;;;4.90;3.17;;;7.90;95.00;;;;;;5093864;28;20025;-43
2022/05/03 03:03:18;;;;;;;4.28;3.13;;;8.00;95.10;;;;;;5098262;28;20097;-42
2022/05/03 03:05:49;;;;;;;5.88;3.20;;;8.00;95.10;;;;;;5087597;28;20198;-43
2022/05/03 03:08:21;;;;;;;3.60;3.30;;;8.00;95.20;;;;;;5095412;28;20467;-40
2022/05/03 03:11:04;;;;;;;3.67;3.15;;;8.00;95.30;;;;;;5108961;28;20042;-43
2022/05/03 03:13:44;;;;;;;4.40;3.42;;;8.00;95.40;;;;;;5095238;28;20057;-44
2022/05/03 03:16:13;;;;;;;5.40;3.78;;;8.00;95.50;;;;;;5108014;28;20038;-40
2022/05/03 03:18:42;;;;;;;3.50;2.95;;;8.00;95.50;;;;;;5096385;28;20070;-41
2022/05/03 03:21:11;;;;;;;4.82;3.28;;;7.90;95.50;;;;;;5108440;28;20067;-41
2022/05/03 03:23:39;;;;;;;4.15;3.10;;;8.00;95.60;;;;;;5094874;28;20051;-41
2022/05/03 03:26:06;;;;;;;4.57;3.70;;;8.00;95.60;;;;;;5108015;28;20054;-41
2022/05/03 03:28:34;;;;;;;4.15;3.70;;;8.00;95.60;;;;;;5095059;28;20040;-42
2022/05/03 03:31:02;;;;;;;4.38;3.75;;;8.00;95.60;;;;;;5109040;28;20074;-39
2022/05/03 03:33:32;;;;;;;3.95;3.45;;;8.00;95.60;;;;;;5095566;28;20036;-42
2022/05/03 03:36:01;;;;;;;5.82;3.95;;;8.00;96.00;;;;;;5107913;28;20031;-43
2022/05/03 03:38:40;;;;;;;4.80;3.72;;;8.10;95.70;;;;;;5097936;28;20493;-43
2022/05/03 03:41:07;;;;;;;3.92;3.40;;;8.00;95.70;;;;;;5106204;28;20115;-40
2022/05/03 03:43:32;;;;;;;4.50;3.70;;;8.00;95.70;;;;;;5098197;28;20109;-42
2022/05/03 03:45:58;;;;;;;4.35;3.70;;;8.00;95.80;;;;;;5095336;28;20475;-44
2022/05/03 03:48:24;;;;;;;4.45;3.42;;;8.00;95.80;;;;;;5092474;28;20070;-42
2022/05/03 03:50:51;;;;;;;4.00;3.53;;;8.00;95.80;;;;;;5093930;28;20069;-40
2022/05/03 03:53:17;;;;;;;4.35;3.53;;;7.90;95.80;;;;;;5090750;28;20057;-42
2022/05/03 03:55:44;;;;;;;3.88;3.33;;;7.90;95.90;;;;;;5095326;28;20105;-41
2022/05/03 03:58:10;;;;;;;3.35;2.83;;;7.90;96.10;;;;;;5088375;28;20459;-41
2022/05/03 04:00:36;;;;;;;4.25;2.80;;;7.80;95.90;;;;;;5098755;28;20124;-44
2022/05/03 04:03:02;;;;;;;3.95;3.20;;;7.80;95.90;;;;;;5088224;28;20039;-42
2022/05/03 04:05:28;;;;;;;3.20;2.80;;;7.70;96.00;;;;;;5098051;28;20042;-41
2022/05/03 04:07:53;;;;;;;4.47;3.47;;;7.70;96.00;;;;;;5087680;28;20024;-42
2022/05/03 04:10:20;;;;;;;4.20;3.55;;;7.60;96.10;;;;;;5092521;28;20062;-42
2022/05/03 04:12:46;;;;;;;5.07;3.47;;;7.60;96.10;;;;;;5107099;28;20036;-42
2022/05/03 04:15:11;;;;;;;4.47;3.40;;;7.50;96.20;;;;;;5093760;28;20039;-41
2022/05/03 04:17:37;;;;;;;4.30;3.35;;;7.50;96.20;;;;;;5106852;28;20542;-41
2022/05/03 04:20:03;;;;;;;3.63;3.20;;;7.40;96.30;;;;;;5095639;28;20036;-41
2022/05/03 04:22:32;;;;;;;3.72;3.08;;;7.40;96.30;;;;;;5105265;28;20067;-42
2022/05/03 04:24:59;;;;;;;3.78;3.33;;;7.30;96.30;;;;;;5097738;28;20394;-42
2022/05/03 04:27:26;;;;;;;5.78;4.05;;;7.30;96.40;;;;;;5103798;28;20035;-42
2022/05/03 04:29:53;;;;;;;3.97;3.58;;;7.30;96.50;;;;;;5099565;28;20039;-44
2022/05/03 04:32:22;;;;;;;6.00;3.80;;;7.30;96.60;;;;;;5101667;28;20038;-43
2022/05/03 04:34:50;;;;;;;4.68;4.05;;;7.30;96.70;;;;;;5101519;28;20537;-41
2022/05/03 04:37:16;;;;;;;8.18;3.60;;;7.20;96.70;;;;;;5098416;28;20020;-42
2022/05/03 04:39:41;;;;;;;4.75;3.88;;;7.20;96.80;;;;;;5103463;28;20035;-43
2022/05/03 04:42:07;;;;;;;5.30;4.03;;;7.20;96.80;;;;;;5096918;28;20063;-41
2022/05/03 04:44:33;;;;;;;4.10;3.53;;;7.20;96.90;;;;;;5104013;28;20395;-41
2022/05/03 04:46:58;;;;;;;4.05;3.65;;;7.10;96.90;;;;;;5104509;28;20024;-43
2022/05/03 04:49:24;;;;;;;4.65;3.92;;;7.10;97.00;;;;;;5104873;28;20023;-42
2022/05/03 04:51:49;;;;;;;4.20;3.70;;;7.10;97.10;;;;;;5098074;28;20028;-42
2022/05/03 04:54:15;;;;;;;4.15;3.75;;;7.10;97.20;;;;;;5086444;28;20430;-41
2022/05/03 04:57:00;;;;;;;4.53;3.47;;;7.10;97.20;;;;;;5099153;28;20024;-41
2022/05/03 04:59:26;;;;;;;5.43;4.03;;;7.10;97.30;;;;;;5086076;28;20090;-42
2022/05/03 05:01:51;;;;;;;4.05;3.65;;;7.10;97.40;;;;;;5100049;28;20054;-41
2022/05/03 05:04:17;;;;;;;3.72;3.15;;;7.10;97.40;;;;;;5086830;28;20110;-43
2022/05/03 05:06:42;;;;;;;5.13;3.40;;;7.10;97.40;;;;;;5098069;28;20027;-43
2022/05/03 05:09:08;;;;;;;4.75;3.35;;;7.10;97.40;;;;;;5087567;28;20066;-43
2022/05/03 05:11:33;;;;;;;4.53;3.42;;;7.20;97.40;;;;;;5095321;28;20111;-42
2022/05/03 05:13:59;;;;;;;3.65;3.10;;;7.20;97.30;;;;;;5089592;28;20067;-41
2022/05/03 05:16:25;;;;;;;3.90;3.38;;;7.20;97.30;;;;;;5092118;28;20034;-42
2022/05/03 05:18:50;;;;;;;4.13;3.60;;;7.20;97.30;;;;;;5090985;28;20031;-44
2022/05/03 05:21:16;;;;;;;4.72;3.70;;;7.30;97.40;;;;;;5090606;28;20030;-41
2022/05/03 05:23:41;;;;;;;5.18;3.80;;;7.40;97.40;;;;;;5095142;28;20035;-41
2022/05/03 05:26:07;;;;;;;4.85;3.75;;;7.40;97.50;;;;;;5087246;28;20111;-43
2022/05/03 05:28:32;;;;;;;5.00;3.55;;;7.50;97.50;;;;;;5097159;28;20041;-43
2022/05/03 05:31:01;;;;;;;4.25;3.55;;;7.60;97.40;;;;;;5087709;28;20761;-41
2022/05/03 05:33:26;;;;;;;4.43;3.90;;;7.70;97.40;;;;;;5096831;28;20038;-42
2022/05/03 05:35:52;;;;;;;5.32;3.50;;;7.70;97.40;;;;;;5086526;28;20036;-42
2022/05/03 05:38:18;;;;;;;4.05;3.42;;;7.80;97.40;;;;;;5098181;28;20425;-41
2022/05/03 05:40:46;;;;;;;4.45;3.60;;;7.90;97.40;;;;;;5085718;28;20083;-42
2022/05/03 05:43:12;;;;;;;4.32;3.45;;;8.00;97.50;;;;;;5096812;28;20039;-41
2022/05/03 05:45:38;;;;;;;5.38;4.22;;;8.10;97.50;;;;;;5090166;28;20051;-42
2022/05/03 05:48:04;;;;;;;6.10;4.07;;;8.10;97.70;;;;;;5091480;28;20060;-43
2022/05/03 05:50:30;;;;;;;4.88;4.20;;;8.20;97.60;;;;;;5074844;28;20480;-40
2022/05/03 05:55:42;;;;;;;4.35;3.95;;;8.40;97.80;;;;;;5103856;28;20046;-42
2022/05/03 05:58:08;;;;;;;6.28;4.32;;;8.40;97.60;;;;;;5095882;28;20125;-44
2022/05/03 06:00:34;;;;;;;6.20;3.92;;;8.50;97.50;;;;;;5098868;28;20547;-42
2022/05/03 06:03:00;;;;;;;3.90;3.25;;;8.60;97.40;;;;;;5095144;28;20031;-41
2022/05/03 06:05:26;;;;;;;3.53;3.20;;;8.70;97.30;;;;;;5089378;28;20024;-42
2022/05/03 06:07:52;;;;;;;3.35;3.05;;;8.80;97.10;;;;;;5087855;28;20040;-42
2022/05/03 06:10:18;;;;;;;3.28;2.83;;;8.90;97.00;;;;;;5094521;28;20031;-41
2022/05/03 06:12:44;;;;;;;4.30;2.90;;;9.00;96.70;;;;;;5101107;28;20500;-42
2022/05/03 06:15:10;;;;;;;3.13;2.65;;;9.00;96.50;;;;;;5092407;28;20380;-41
2022/05/03 06:17:36;;;;;;;2.78;2.28;;;9.10;96.20;;;;;;5100156;28;20460;-41
2022/05/03 06:20:01;;;;;;;3.63;2.25;;;9.20;96.10;;;;;;5092672;28;20039;-42
2022/05/03 06:22:27;;;;;;;2.67;2.30;;;9.30;95.80;;;;;;5103406;28;20050;-42
2022/05/03 06:24:53;;;;;;;2.92;2.20;;;9.40;95.50;;;;;;5091780;28;20491;-41
2022/05/03 06:27:19;;;;;;;2.72;2.08;;;9.40;94.90;;;;;;5105296;28;20223;-42
2022/05/03 06:29:44;;;;;;;2.20;2.00;;;9.50;94.70;;;;;;5090395;28;20024;-41
2022/05/03 06:32:10;;;;;;;3.30;2.22;;;9.60;94.00;;;;;;5105322;28;20488;-41
2022/05/03 06:34:39;;;;;;;2.42;1.70;;;9.70;93.90;;;;;;5092263;28;20039;-42
2022/05/03 06:37:05;;;;;;;1.30;1.20;;;9.80;93.70;;;;;;5106341;28;20024;-42
2022/05/03 06:39:31;;;;;;;2.03;1.45;;;9.90;93.20;;;;;;5098615;28;20053;-42
2022/05/03 06:41:56;;;;;;;3.58;1.73;;;10.00;92.60;;;;;;5107447;28;20051;-41
2022/05/03 06:44:22;;;;;;;1.50;1.15;;;10.10;92.00;;;;;;5100921;28;20020;-43
2022/05/03 06:46:49;;;;;;;1.30;1.20;;;10.10;91.50;;;;;;5089176;28;20031;-42
2022/05/03 06:49:14;;;;;;;2.63;1.40;;;10.20;91.30;;;;;;5092979;28;20161;-40
2022/05/03 06:51:40;;;;;;;1.50;1.00;;;10.20;91.00;;;;;;5096919;28;20481;-43
2022/05/03 06:54:08;;;;;;;1.10;0.98;;;10.30;90.60;;;;;;5091338;28;20562;-43
2022/05/03 06:56:37;;;;;;;1.55;1.15;;;10.30;90.60;;;;;;5099460;28;20012;-42
2022/05/03 06:59:09;;;;;;;1.42;1.33;;;10.40;90.20;;;;;;5089304;28;20039;-40
2022/05/03 07:01:35;;;;;;;3.58;2.38;;;10.50;90.30;;;;;;5099805;28;20024;-41
2022/05/03 07:04:01;;;;;;;2.75;2.50;;;10.50;90.20;;;;;;5089577;28;20035;-39
2022/05/03 07:06:29;;;;;;;4.82;2.53;;;10.60;90.40;;;;;;5099688;28;20491;-38
2022/05/03 07:08:54;;;;;;;3.97;2.60;;;10.70;90.60;;;;;;5088444;28;20031;-38
2022/05/03 07:11:20;;;;;;;2.33;2.13;;;10.80;90.70;;;;;;5100564;28;20132;-40
2022/05/03 07:13:48;;;;;;;2.72;1.88;;;10.90;90.80;;;;;;5088305;28;20031;-42
2022/05/03 07:16:13;;;;;;;2.85;2.60;;;10.90;91.00;;;;;;5100959;28;20071;-43
2022/05/03 07:24:07;;;;;;;3.80;3.13;;;11.10;91.10;;;;;;5088949;28;20097;-41
2022/05/03 07:26:33;;;;;;;4.88;2.58;;;11.20;91.10;;;;;;5099664;28;20031;-41
2022/05/03 07:28:59;;;;;;;3.70;3.20;;;11.20;91.10;;;;;;5088180;28;20084;-42
2022/05/03 07:31:24;;;;;;;4.90;3.42;;;11.20;91.20;;;;;;5098384;28;20023;-41
2022/05/03 07:33:50;;;;;;;3.47;2.95;;;11.30;91.20;;;;;;5088643;28;20466;-40
2022/05/03 07:36:18;;;;;;;3.75;3.05;;;11.30;91.20;;;;;;5095484;28;20470;-42
2022/05/03 07:38:45;;;;;;;3.53;2.83;;;11.40;91.20;;;;;;5092197;28;20089;-42
2022/05/03 07:41:11;;;;;;;2.45;2.25;;;11.40;91.20;;;;;;5093633;28;20023;-42
2022/05/03 07:43:37;;;;;;;3.00;2.50;;;11.50;91.20;;;;;;5093571;28;20027;-41
2022/05/03 07:46:03;;;;;;;3.45;2.58;;;11.60;91.20;;;;;;5091424;28;20020;-42
2022/05/03 07:48:28;;;;;;;3.78;2.78;;;11.60;91.10;;;;;;5094804;28;20753;-41
2022/05/03 07:50:54;;;;;;;2.72;2.10;;;11.70;91.10;;;;;;5089149;28;20027;-45
2022/05/03 07:53:20;;;;;;;2.75;2.53;;;11.80;91.10;;;;;;5098675;28;20039;-42
2022/05/03 07:55:49;;;;;;;3.17;2.60;;;11.80;91.10;;;;;;5089394;28;20021;-40
2022/05/03 07:58:15;;;;;;;4.82;2.55;;;11.80;91.20;;;;;;5099223;28;20086;-40
2022/05/03 08:00:41;;;;;;;2.88;2.58;;;11.90;91.20;;;;;;5087251;28;20073;-44
2022/05/03 08:03:07;;;;;;;4.40;2.88;;;12.00;91.20;;;;;;5095495;28;20023;-41
2022/05/03 08:05:32;;;;;;;2.97;2.60;;;12.00;91.20;;;;;;5109066;28;20028;-43
2022/05/03 08:07:58;;;;;;;3.97;3.10;;;12.10;91.20;;;;;;5095868;28;20088;-40
2022/05/03 08:10:23;;;;;;;2.70;2.50;;;12.10;91.20;;;;;;5108595;28;20027;-42
2022/05/03 08:12:52;;;;;;;3.38;2.63;;;12.10;91.20;;;;;;5097308;28;20608;-40
2022/05/03 08:15:19;;;;;;;3.28;2.97;;;12.20;91.10;;;;;;5106957;28;20054;-42
2022/05/03 08:17:48;;;;;;;3.38;2.83;;;12.20;91.20;;;;;;5098989;28;20116;-42
2022/05/03 08:20:16;;;;;;;4.35;3.75;;;12.30;91.10;;;;;;5104871;28;20063;-43
2022/05/03 08:22:43;;;;;;;4.10;3.65;;;12.40;91.10;;;;;;5094084;28;20050;-42
2022/05/03 08:25:09;;;;;;;3.65;3.10;;;12.50;91.00;;;;;;5093610;28;20031;-42
2022/05/03 08:27:40;;;;;;;4.32;3.40;;;12.60;91.00;;;;;;5092589;28;20019;-42
2022/05/03 08:30:07;;;;;;;5.00;3.42;;;12.60;91.10;;;;;;5094316;28;20028;-43
2022/05/03 08:32:33;;;;;;;4.82;3.67;;;12.70;91.10;;;;;;5090123;28;20016;-41
2022/05/03 08:34:58;;;;;;;4.47;3.42;;;12.80;91.10;;;;;;5097621;28;20053;-42
2022/05/03 08:42:55;;;;;;;3.38;3.08;;;12.90;91.10;;;;;;5104388;28;20541;-41
2022/05/03 08:45:21;;;;;;;3.10;2.60;;;13.00;91.10;;;;;;5098159;28;20023;-42
2022/05/03 08:47:48;;;;;;;3.28;2.90;;;13.10;91.10;;;;;;5088315;28;20023;-43
2022/05/03 08:50:19;;;;;;;3.92;2.30;;;13.20;91.10;;;;;;5096329;28;20485;-42
2022/05/03 08:52:54;;;;;;;3.53;2.88;;;13.20;91.10;;;;;;5087347;28;20024;-43
2022/05/03 08:55:21;;;;;;;3.95;3.15;;;13.30;91.10;;;;;;5098040;28;20020;-42
2022/05/03 08:57:47;;;;;;;3.20;2.90;;;13.40;91.10;;;;;;5087698;28;20032;-43
2022/05/03 09:00:14;;;;;;;3.63;2.80;;;13.40;91.10;;;;;;5097218;28;20051;-43
2022/05/03 09:02:48;;;;;;;3.38;2.72;;;13.40;91.00;;;;;;5086407;28;20040;-42
2022/05/03 09:05:14;;;;;;;3.22;2.92;;;13.50;91.00;;;;;;5092978;28;20027;-43
2022/05/03 09:07:48;;;;;;;3.30;2.97;;;13.60;91.00;;;;;;5107418;28;20032;-43
2022/05/03 09:10:25;;;;;;;4.97;3.70;;;13.70;91.00;;;;;;5093832;28;20378;-42
2022/05/03 09:12:51;;;;;;;3.63;3.28;;;13.80;91.00;;;;;;5106607;28;20478;-43
2022/05/03 09:15:33;;;;;;;4.90;3.58;;;13.90;91.00;;;;;;5094436;28;20016;-43
2022/05/03 09:18:00;;;;;;;5.25;3.20;;;14.00;91.10;;;;;;5106419;28;20046;-43
2022/05/03 09:26:19;;;;;;;4.40;4.00;;;14.70;90.70;;;;;;5094506;28;20039;-42
2022/05/03 09:29:10;;;;;;;4.55;3.50;;;14.80;90.60;;;;;;5105101;28;20034;-43
2022/05/03 09:31:43;;;;;;;3.58;3.15;;;14.90;90.60;;;;;;5095339;28;20099;-40
2022/05/03 09:34:18;;;;;;;4.43;4.03;;;15.00;90.50;;;;;;5085884;28;20055;-40
2022/05/03 09:36:48;;;;;;;5.38;4.82;;;15.10;90.90;;;;;;5095985;28;20882;-41
2022/05/03 09:39:25;;;;;;;4.35;3.63;;;15.20;90.60;;;;;;5085507;28;20549;-42
2022/05/03 09:42:10;;;;;;;3.95;3.53;;;15.30;90.70;;;;;;5096199;28;20036;-42
2022/05/03 09:44:37;;;;;;;5.15;4.43;;;15.40;90.70;;;;;;5085130;28;20549;-42
2022/05/03 09:47:09;;;;;;;5.15;3.80;;;15.50;90.70;;;;;;5090781;28;20375;-42
2022/05/03 09:49:44;;;;;;;6.55;4.10;;;15.60;90.70;;;;;;5087218;28;20051;-43
2022/05/03 09:52:28;;;;;;;4.55;3.88;;;15.60;90.70;;;;;;5097229;28;20107;-43
2022/05/03 09:54:59;;;;;;;4.65;4.10;;;15.60;90.70;;;;;;5086429;28;20058;-43
2022/05/03 09:57:27;;;;;;;4.45;3.80;;;15.80;90.70;;;;;;5097233;28;20020;-42
2022/05/03 09:59:54;;;;;;;6.10;4.90;;;15.90;90.60;;;;;;5086767;28;20055;-42
2022/05/03 10:02:26;;;;;;;5.88;4.53;;;16.10;90.50;;;;;;5097084;28;20020;-41
2022/05/03 10:04:53;;;;;;;6.82;5.15;;;16.20;90.40;;;;;;5086534;28;20024;-43
2022/05/03 10:07:20;;;;;;;6.38;5.20;;;16.30;90.40;;;;;;5094825;28;20023;-42
2022/05/03 10:09:49;;;;;;;6.22;5.63;;;16.30;90.40;;;;;;5084787;28;20027;-43
2022/05/03 10:12:16;;;;;;;7.68;5.10;;;16.40;90.40;;;;;;5101329;28;20036;-44
2022/05/03 10:14:43;;;;;;;5.85;5.25;;;16.50;90.40;;;;;;5089571;28;20389;-48
2022/05/03 10:22:51;;;;;;;5.90;4.82;;;16.60;90.40;;;;;;5096920;28;20122;-43
2022/05/03 10:25:27;;;;;;;5.10;4.60;;;16.70;90.50;;;;;;5108268;28;20102;-42
2022/05/03 10:27:57;;;;;;;5.13;4.55;;;16.70;90.50;;;;;;5096827;28;20024;-41
2022/05/03 10:30:26;;;;;;;6.22;4.35;;;16.70;90.40;;;;;;5110165;28;20027;-43
2022/05/03 10:33:30;;;;;;;6.00;4.47;;;16.70;90.40;;;;;;5096976;28;20043;-43
2022/05/03 10:35:58;;;;;;;5.90;4.70;;;16.60;90.40;;;;;;5090002;28;20572;-44
2022/05/03 10:38:38;;;;;;;4.70;4.28;;;16.50;90.40;;;;;;5098354;28;20039;-44
2022/05/03 10:41:05;;;;;;;6.28;5.35;;;16.50;90.50;;;;;;5109637;28;20382;-42
2022/05/03 10:43:33;;;;;;;4.75;4.25;;;16.50;90.50;;;;;;5095731;28;20397;-42
2022/05/03 10:46:12;;;;;;;4.70;4.10;;;16.60;90.60;;;;;;5107985;28;20019;-42
2022/05/03 10:48:41;;;;;;;6.32;4.10;;;16.60;90.60;;;;;;5096653;28;20019;-43
2022/05/03 10:51:10;;;;;;;5.38;4.50;;;16.70;90.60;;;;;;5109079;28;20467;-42
2022/05/03 10:53:41;;;;;;;6.78;5.03;;;16.70;90.50;;;;;;5096264;28;20058;-42
2022/05/03 10:56:06;;;;;;;5.13;4.40;;;16.70;90.50;;;;;;5109939;28;20019;-42
2022/05/03 10:58:35;;;;;;;5.75;4.60;;;16.80;90.40;;;;;;5096023;28;20831;-43
2022/05/03 11:01:20;;;;;;;5.35;4.55;;;16.80;90.40;;;;;;5068586;28;20447;-42
2022/05/03 11:03:51;;;;;;;4.80;4.20;;;16.90;90.30;;;;;;5095765;28;20024;-39
2022/05/03 11:06:22;;;;;;;5.28;4.18;;;16.90;90.20;;;;;;5087457;28;20488;-42
2022/05/03 11:11:42;;;;;;;4.68;3.10;;;17.10;90.10;;;;;;5066804;28;20048;-43
2022/05/03 11:14:17;;;;;;;3.45;3.15;;;17.10;90.00;;;;;;5097531;28;20070;-44
2022/05/03 11:17:09;;;;;;;3.35;2.97;;;17.10;90.00;;;;;;5088378;28;20039;-43
2022/05/03 11:19:50;;;;;;;3.20;2.90;;;17.10;90.00;;;;;;5096740;28;20047;-42
2022/05/03 11:22:17;;;;;;;3.30;3.00;;;17.10;89.70;;;;;;5088438;28;20016;-44
2022/05/03 11:24:51;;;;;;;4.72;3.88;;;17.10;89.60;;;;;;5100390;28;20031;-42
2022/05/03 11:27:17;;;;;;;4.38;3.97;;;17.10;89.10;;;;;;5088041;28;20415;-42
2022/05/03 11:29:45;;;;;;;4.13;3.67;;;17.10;89.40;;;;;;5101165;28;20020;-39
2022/05/03 11:32:11;;;;;;;4.65;4.13;;;17.10;90.10;;;;;;5088900;28;20039;-45
2022/05/03 11:34:38;;;;;;;4.28;3.88;;;17.10;89.90;;;;;;5098690;28;20048;-43
2022/05/03 11:37:04;;;;;;;3.53;3.22;;;17.10;90.00;;;;;;5089694;28;20112;-44
2022/05/03 11:39:30;;;;;;;3.40;2.88;;;17.10;90.00;;;;;;5096274;28;20031;-42
2022/05/03 11:41:56;;;;;;;3.88;2.90;;;17.20;89.70;;;;;;5092396;28;20020;-43
2022/05/03 11:44:22;;;;;;;4.13;3.03;;;17.30;89.60;;;;;;5094726;28;20088;-41
2022/05/03 11:46:48;;;;;;;3.00;2.78;;;17.30;89.30;;;;;;5104501;28;20024;-42
2022/05/03 11:49:16;;;;;;;3.97;2.28;;;17.40;89.20;;;;;;5104120;28;20760;-44
2022/05/03 11:57:20;;;;;;;3.92;3.00;;;17.50;89.20;;;;;;5104008;28;20072;-43
2022/05/03 11:59:45;;;;;;;3.28;2.95;;;17.50;89.30;;;;;;5101699;28;20044;-42
2022/05/03 12:02:12;;;;;;;2.92;2.50;;;17.40;89.30;;;;;;5101590;28;20548;-45
2022/05/03 12:04:38;;;;;;;3.00;2.63;;;17.40;89.50;;;;;;5104444;28;20917;-43
2022/05/03 12:07:04;;;;;;;2.95;2.70;;;17.40;89.70;;;;;;5098424;28;20027;-42
2022/05/03 12:09:35;;;;;;;2.50;2.30;;;17.40;89.70;;;;;;5107024;28;20055;-43
2022/05/03 12:14:45;;;;;;;3.45;2.95;;;17.40;89.80;;;;;;5105418;28;20035;-47
2022/05/03 12:17:11;;;;;;;3.15;2.53;;;17.50;89.80;;;;;;5085532;28;20027;-42
2022/05/03 12:19:37;;;;;;;4.50;3.00;;;17.40;89.80;;;;;;5096287;28;20032;-46
2022/05/03 12:22:14;;;;;;;3.28;2.92;;;17.40;89.90;;;;;;5098314;28;20012;-44
2022/05/03 12:24:42;;;;;;;2.88;2.67;;;17.40;89.90;;;;;;5088626;28;20115;-43
2022/05/03 12:27:12;;;;;;;2.72;2.53;;;17.40;90.00;;;;;;5098331;28;20020;-43
2022/05/03 12:29:47;;;;;;;3.20;2.90;;;17.30;90.00;;;;;;5086489;28;20086;-44
2022/05/03 12:32:18;;;;;;;2.83;2.63;;;17.20;90.10;;;;;;5098889;28;20055;-42
2022/05/03 12:35:01;;;;;;;3.35;3.05;;;17.20;90.10;;;;;;5085088;28;20093;-42
2022/05/03 12:37:28;;;;;;;3.45;3.15;;;17.10;90.20;;;;;;5094064;28;20040;-43
2022/05/03 12:39:59;;;;;;;3.53;2.72;;;17.10;90.20;;;;;;5087199;28;20301;-42
2022/05/03 12:42:25;;;;;;;3.60;3.30;;;17.00;90.20;;;;;;5098323;28;20020;-45
2022/05/03 12:44:53;;;;;;;3.75;3.00;;;16.90;90.20;;;;;;5086566;28;20410;-43
2022/05/03 12:47:19;;;;;;;3.35;2.95;;;16.80;90.20;;;;;;5099638;28;20016;-42
2022/05/03 12:49:45;;;;;;;4.75;4.03;;;16.80;90.30;;;;;;5086620;28;20028;-42
2022/05/03 12:52:11;;;;;;;6.30;3.80;;;16.70;90.20;;;;;;5079813;28;20023;-44
2022/05/03 12:54:48;;;;;;;4.50;4.10;;;16.70;90.20;;;;;;5104940;28;20036;-41
2022/05/03 12:59:58;;;;;;;4.40;3.55;;;16.60;90.20;;;;;;5066911;28;20136;-44
2022/05/03 13:02:25;;;;;;;5.43;4.38;;;16.60;90.30;;;;;;5090876;28;20107;-41
2022/05/03 13:04:53;;;;;;;15.27;8.48;;;16.60;90.40;;;;;;5088500;28;20080;-43
2022/05/03 13:07:19;;;;;;;15.18;11.25;;;16.60;90.60;;;;;;5094785;28;20058;-43
2022/05/03 13:09:45;;;;;;;19.60;13.95;;;16.50;91.00;;;;;;5089116;28;20020;-41
2022/05/03 13:12:11;;;;;;;24.85;15.68;;;16.40;91.60;;;;;;5092314;28;20032;-43
2022/05/03 13:14:37;;;;;;;23.77;15.15;;;16.30;92.60;;;;;;5093294;28;20118;-42
2022/05/03 13:17:03;;;;;;;27.55;16.40;;;16.20;92.50;;;;;;5088804;28;20028;-42
2022/05/03 13:19:30;;;;;;;25.80;17.23;;;16.10;92.90;;;;;;5096073;28;20026;-43
2022/05/03 13:21:56;;;;;;;27.92;16.67;;;16.00;93.20;;;;;;5088371;28;20015;-42
2022/05/03 13:24:23;;;;;;;30.98;19.30;;;15.90;93.30;;;;;;5097353;28;20029;-44
2022/05/03 13:26:49;;;;;;;28.25;17.92;;;15.90;94.20;;;;;;5098819;28;20020;-42
2022/05/03 13:29:16;;;;;;;27.77;17.52;;;15.80;94.10;;;;;;5097888;28;20780;-43
2022/05/03 13:31:43;;;;;;;24.25;16.50;;;15.70;94.30;;;;;;5086204;28;20025;-42
2022/05/03 13:34:13;;;;;;;28.67;18.05;;;15.60;94.90;;;;;;5098944;28;20058;-44
2022/05/03 13:42:16;;;;;;;29.42;18.75;;;15.50;94.80;;;;;;5106316;28;20083;-42
2022/05/03 13:44:42;;;;;;;28.98;18.45;;;15.50;94.80;;;;;;5093696;28;20032;-44
2022/05/03 13:47:12;;;;;;;26.52;17.67;;;15.50;94.90;;;;;;5097732;28;20019;-43
2022/05/03 13:49:38;;;;;;;35.75;20.25;;;15.50;94.90;;;;;;5093322;28;20058;-43
2022/05/03 13:52:04;;;;;;;27.98;17.60;;;15.50;95.20;;;;;;5106242;28;20047;-43
2022/05/03 13:54:30;;;;;;;28.58;19.00;;;15.40;95.20;;;;;;5092594;28;20031;-45
2022/05/03 13:56:56;;;;;;;26.67;16.05;;;15.40;95.30;;;;;;5106455;28;20070;-42